sensor_id;sensor_type;location;lat;lon;timestamp;P1;durP1;ratioP1;P2;durP2;ratioP2
53271;SDS011;39160;48.580;7.756;2023-03-01T00:04:40;7.43;;;3.78;;
53271;SDS011;39160;48.580;7.756;2023-03-01T00:09:31;7.57;;;4.22;;
53271;SDS011;39160;48.580;7.756;2023-03-01T00:14:21;11.82;;;4.70;;
53271;SDS011;39160;48.580;7.756;2023-03-01T00:19:14;7.90;;;3.67;;
53271;SDS011;39160;48.580;7.756;2023-03-01T00:24:07;9.43;;;4.00;;
53271;SDS011;39160;48.580;7.756;2023-03-01T00:28:59;11.60;;;4.40;;
53271;SDS011;39160;48.580;7.756;2023-03-01T00:33:53;7.95;;;4.18;;
53271;SDS011;39160;48.580;7.756;2023-03-01T00:38:49;8.50;;;6.15;;
53271;SDS011;39160;48.580;7.756;2023-03-01T00:43:40;10.80;;;4.30;;
53271;SDS011;39160;48.580;7.756;2023-03-01T00:48:31;9.10;;;4.70;;
53271;SDS011;39160;48.580;7.756;2023-03-01T00:53:22;11.88;;;4.65;;
53271;SDS011;39160;48.580;7.756;2023-03-01T00:58:13;6.55;;;4.53;;
53271;SDS011;39160;48.580;7.756;2023-03-01T01:03:03;9.32;;;4.72;;
53271;SDS011;39160;48.580;7.756;2023-03-01T01:07:54;7.05;;;3.78;;
53271;SDS011;39160;48.580;7.756;2023-03-01T01:12:45;14.60;;;4.30;;
53271;SDS011;39160;48.580;7.756;2023-03-01T01:17:36;10.93;;;4.30;;
53271;SDS011;39160;48.580;7.756;2023-03-01T01:22:26;8.93;;;3.78;;
53271;SDS011;39160;48.580;7.756;2023-03-01T01:27:17;7.28;;;3.67;;
53271;SDS011;39160;48.580;7.756;2023-03-01T01:32:08;6.05;;;3.42;;
53271;SDS011;39160;48.580;7.756;2023-03-01T01:36:58;9.52;;;5.25;;
53271;SDS011;39160;48.580;7.756;2023-03-01T01:41:52;7.45;;;3.97;;
53271;SDS011;39160;48.580;7.756;2023-03-01T01:46:53;7.55;;;3.97;;
53271;SDS011;39160;48.580;7.756;2023-03-01T01:57:06;5.90;;;3.40;;
53271;SDS011;39160;48.580;7.756;2023-03-01T02:02:00;8.68;;;4.65;;
53271;SDS011;39160;48.580;7.756;2023-03-01T02:07:03;11.80;;;4.55;;
53271;SDS011;39160;48.580;7.756;2023-03-01T02:11:59;11.70;;;4.25;;
53271;SDS011;39160;48.580;7.756;2023-03-01T02:16:51;8.55;;;4.10;;
53271;SDS011;39160;48.580;7.756;2023-03-01T02:21:45;6.70;;;3.92;;
53271;SDS011;39160;48.580;7.756;2023-03-01T02:27:05;8.77;;;3.65;;
53271;SDS011;39160;48.580;7.756;2023-03-01T02:31:56;8.35;;;4.10;;
53271;SDS011;39160;48.580;7.756;2023-03-01T02:36:51;8.13;;;4.47;;
53271;SDS011;39160;48.580;7.756;2023-03-01T02:41:46;8.68;;;3.63;;
53271;SDS011;39160;48.580;7.756;2023-03-01T02:46:50;10.97;;;3.47;;
53271;SDS011;39160;48.580;7.756;2023-03-01T02:51:45;12.85;;;4.40;;
53271;SDS011;39160;48.580;7.756;2023-03-01T02:56:44;8.90;;;4.10;;
53271;SDS011;39160;48.580;7.756;2023-03-01T03:01:38;8.57;;;4.00;;
53271;SDS011;39160;48.580;7.756;2023-03-01T03:06:29;8.55;;;4.07;;
53271;SDS011;39160;48.580;7.756;2023-03-01T03:11:20;9.15;;;4.75;;
53271;SDS011;39160;48.580;7.756;2023-03-01T03:16:10;6.55;;;3.72;;
53271;SDS011;39160;48.580;7.756;2023-03-01T03:21:01;7.75;;;4.07;;
53271;SDS011;39160;48.580;7.756;2023-03-01T03:25:52;10.65;;;4.97;;
53271;SDS011;39160;48.580;7.756;2023-03-01T03:30:44;5.97;;;4.05;;
53271;SDS011;39160;48.580;7.756;2023-03-01T03:35:39;6.13;;;4.10;;
53271;SDS011;39160;48.580;7.756;2023-03-01T03:40:38;8.25;;;4.07;;
53271;SDS011;39160;48.580;7.756;2023-03-01T03:45:30;9.98;;;4.57;;
53271;SDS011;39160;48.580;7.756;2023-03-01T03:50:23;8.45;;;4.05;;
53271;SDS011;39160;48.580;7.756;2023-03-01T03:55:13;8.65;;;4.32;;
53271;SDS011;39160;48.580;7.756;2023-03-01T04:00:10;11.83;;;5.23;;
53271;SDS011;39160;48.580;7.756;2023-03-01T04:05:05;9.30;;;4.03;;
53271;SDS011;39160;48.580;7.756;2023-03-01T04:09:57;12.40;;;4.60;;
53271;SDS011;39160;48.580;7.756;2023-03-01T04:14:48;8.60;;;5.00;;
53271;SDS011;39160;48.580;7.756;2023-03-01T04:19:39;7.80;;;4.25;;
53271;SDS011;39160;48.580;7.756;2023-03-01T04:24:30;11.05;;;4.75;;
53271;SDS011;39160;48.580;7.756;2023-03-01T04:29:20;10.10;;;4.95;;
53271;SDS011;39160;48.580;7.756;2023-03-01T04:34:11;11.18;;;4.13;;
53271;SDS011;39160;48.580;7.756;2023-03-01T04:39:04;7.60;;;3.65;;
53271;SDS011;39160;48.580;7.756;2023-03-01T04:44:02;12.82;;;4.30;;
53271;SDS011;39160;48.580;7.756;2023-03-01T04:48:53;8.02;;;4.20;;
53271;SDS011;39160;48.580;7.756;2023-03-01T04:53:43;12.05;;;4.55;;
53271;SDS011;39160;48.580;7.756;2023-03-01T04:58:34;7.25;;;3.88;;
53271;SDS011;39160;48.580;7.756;2023-03-01T05:03:25;9.48;;;5.03;;
53271;SDS011;39160;48.580;7.756;2023-03-01T05:08:16;9.90;;;4.63;;
53271;SDS011;39160;48.580;7.756;2023-03-01T05:13:10;10.05;;;4.75;;
53271;SDS011;39160;48.580;7.756;2023-03-01T05:18:03;12.02;;;4.63;;
53271;SDS011;39160;48.580;7.756;2023-03-01T05:22:59;8.18;;;4.57;;
53271;SDS011;39160;48.580;7.756;2023-03-01T05:27:50;7.35;;;4.30;;
53271;SDS011;39160;48.580;7.756;2023-03-01T05:32:45;10.05;;;5.30;;
53271;SDS011;39160;48.580;7.756;2023-03-01T05:37:46;10.52;;;4.55;;
53271;SDS011;39160;48.580;7.756;2023-03-01T05:42:38;8.60;;;4.40;;
53271;SDS011;39160;48.580;7.756;2023-03-01T05:47:29;8.35;;;4.38;;
53271;SDS011;39160;48.580;7.756;2023-03-01T05:52:21;11.88;;;5.30;;
53271;SDS011;39160;48.580;7.756;2023-03-01T05:57:12;11.77;;;4.90;;
53271;SDS011;39160;48.580;7.756;2023-03-01T06:02:02;10.68;;;4.72;;
53271;SDS011;39160;48.580;7.756;2023-03-01T06:06:53;9.07;;;4.88;;
53271;SDS011;39160;48.580;7.756;2023-03-01T06:11:44;7.72;;;4.80;;
53271;SDS011;39160;48.580;7.756;2023-03-01T06:16:34;13.82;;;5.05;;
53271;SDS011;39160;48.580;7.756;2023-03-01T06:21:25;10.23;;;4.38;;
53271;SDS011;39160;48.580;7.756;2023-03-01T06:26:16;13.70;;;5.18;;
53271;SDS011;39160;48.580;7.756;2023-03-01T06:31:07;10.00;;;4.53;;
53271;SDS011;39160;48.580;7.756;2023-03-01T06:35:59;9.25;;;4.63;;
53271;SDS011;39160;48.580;7.756;2023-03-01T06:40:53;11.40;;;4.85;;
53271;SDS011;39160;48.580;7.756;2023-03-01T06:45:44;10.98;;;4.95;;
53271;SDS011;39160;48.580;7.756;2023-03-01T06:50:35;8.95;;;4.68;;
53271;SDS011;39160;48.580;7.756;2023-03-01T06:55:27;9.73;;;4.47;;
53271;SDS011;39160;48.580;7.756;2023-03-01T07:00:18;13.98;;;4.85;;
53271;SDS011;39160;48.580;7.756;2023-03-01T07:05:10;10.35;;;5.50;;
53271;SDS011;39160;48.580;7.756;2023-03-01T07:10:00;10.23;;;5.82;;
53271;SDS011;39160;48.580;7.756;2023-03-01T07:14:51;12.65;;;5.97;;
53271;SDS011;39160;48.580;7.756;2023-03-01T07:19:42;14.95;;;5.65;;
53271;SDS011;39160;48.580;7.756;2023-03-01T07:24:33;12.55;;;5.43;;
53271;SDS011;39160;48.580;7.756;2023-03-01T07:29:24;13.65;;;5.07;;
53271;SDS011;39160;48.580;7.756;2023-03-01T07:34:15;10.73;;;6.15;;
53271;SDS011;39160;48.580;7.756;2023-03-01T07:39:05;12.65;;;5.60;;
53271;SDS011;39160;48.580;7.756;2023-03-01T07:43:56;9.73;;;5.07;;
53271;SDS011;39160;48.580;7.756;2023-03-01T07:48:47;9.00;;;5.45;;
53271;SDS011;39160;48.580;7.756;2023-03-01T07:53:37;14.70;;;5.25;;
53271;SDS011;39160;48.580;7.756;2023-03-01T07:58:28;12.77;;;5.93;;
53271;SDS011;39160;48.580;7.756;2023-03-01T08:03:19;12.77;;;6.20;;
53271;SDS011;39160;48.580;7.756;2023-03-01T08:08:09;15.25;;;7.10;;
53271;SDS011;39160;48.580;7.756;2023-03-01T08:13:00;13.80;;;6.60;;
53271;SDS011;39160;48.580;7.756;2023-03-01T08:17:51;11.68;;;5.25;;
53271;SDS011;39160;48.580;7.756;2023-03-01T08:22:41;13.45;;;6.43;;
53271;SDS011;39160;48.580;7.756;2023-03-01T08:27:32;12.13;;;5.95;;
53271;SDS011;39160;48.580;7.756;2023-03-01T08:32:22;14.63;;;6.32;;
53271;SDS011;39160;48.580;7.756;2023-03-01T08:37:13;18.15;;;6.68;;
53271;SDS011;39160;48.580;7.756;2023-03-01T08:42:04;15.20;;;6.53;;
53271;SDS011;39160;48.580;7.756;2023-03-01T08:46:54;14.85;;;6.85;;
53271;SDS011;39160;48.580;7.756;2023-03-01T08:51:45;15.75;;;6.80;;
53271;SDS011;39160;48.580;7.756;2023-03-01T08:56:37;13.43;;;6.15;;
53271;SDS011;39160;48.580;7.756;2023-03-01T09:01:28;18.02;;;6.82;;
53271;SDS011;39160;48.580;7.756;2023-03-01T09:06:19;13.32;;;6.75;;
53271;SDS011;39160;48.580;7.756;2023-03-01T09:11:11;15.95;;;8.27;;
53271;SDS011;39160;48.580;7.756;2023-03-01T09:16:06;16.08;;;6.38;;
53271;SDS011;39160;48.580;7.756;2023-03-01T09:21:04;18.05;;;7.38;;
53271;SDS011;39160;48.580;7.756;2023-03-01T09:25:58;14.55;;;7.30;;
53271;SDS011;39160;48.580;7.756;2023-03-01T09:30:48;24.67;;;8.60;;
53271;SDS011;39160;48.580;7.756;2023-03-01T09:35:39;16.98;;;7.50;;
53271;SDS011;39160;48.580;7.756;2023-03-01T09:40:35;14.68;;;6.68;;
53271;SDS011;39160;48.580;7.756;2023-03-01T09:45:36;15.23;;;8.23;;
53271;SDS011;39160;48.580;7.756;2023-03-01T09:50:38;14.85;;;7.55;;
53271;SDS011;39160;48.580;7.756;2023-03-01T10:00:42;18.42;;;8.40;;
53271;SDS011;39160;48.580;7.756;2023-03-01T10:10:32;14.80;;;8.18;;
53271;SDS011;39160;48.580;7.756;2023-03-01T10:15:39;14.10;;;7.53;;
53271;SDS011;39160;48.580;7.756;2023-03-01T10:20:48;13.35;;;7.50;;
53271;SDS011;39160;48.580;7.756;2023-03-01T10:25:51;18.05;;;8.68;;
53271;SDS011;39160;48.580;7.756;2023-03-01T10:31:02;17.52;;;8.25;;
53271;SDS011;39160;48.580;7.756;2023-03-01T10:35:53;18.92;;;8.95;;
53271;SDS011;39160;48.580;7.756;2023-03-01T10:45:47;15.15;;;7.55;;
53271;SDS011;39160;48.580;7.756;2023-03-01T10:50:38;14.38;;;7.47;;
53271;SDS011;39160;48.580;7.756;2023-03-01T10:55:32;18.35;;;8.30;;
53271;SDS011;39160;48.580;7.756;2023-03-01T11:00:26;13.73;;;7.60;;
53271;SDS011;39160;48.580;7.756;2023-03-01T11:05:20;17.13;;;8.45;;
53271;SDS011;39160;48.580;7.756;2023-03-01T11:10:18;14.90;;;8.83;;
53271;SDS011;39160;48.580;7.756;2023-03-01T11:15:26;18.42;;;8.73;;
53271;SDS011;39160;48.580;7.756;2023-03-01T11:20:25;12.18;;;7.00;;
53271;SDS011;39160;48.580;7.756;2023-03-01T11:25:23;15.15;;;7.70;;
53271;SDS011;39160;48.580;7.756;2023-03-01T11:30:43;20.05;;;8.68;;
53271;SDS011;39160;48.580;7.756;2023-03-01T11:36:07;18.08;;;8.98;;
53271;SDS011;39160;48.580;7.756;2023-03-01T11:41:10;19.33;;;8.93;;
53271;SDS011;39160;48.580;7.756;2023-03-01T11:51:12;14.75;;;8.07;;
53271;SDS011;39160;48.580;7.756;2023-03-01T12:01:25;15.85;;;8.88;;
53271;SDS011;39160;48.580;7.756;2023-03-01T12:11:24;19.10;;;8.95;;
53271;SDS011;39160;48.580;7.756;2023-03-01T12:16:23;17.17;;;7.53;;
53271;SDS011;39160;48.580;7.756;2023-03-01T12:26:47;19.25;;;9.90;;
53271;SDS011;39160;48.580;7.756;2023-03-01T12:37:36;15.90;;;8.65;;
53271;SDS011;39160;48.580;7.756;2023-03-01T12:42:33;16.23;;;8.75;;
53271;SDS011;39160;48.580;7.756;2023-03-01T12:52:44;20.65;;;10.18;;
53271;SDS011;39160;48.580;7.756;2023-03-01T12:57:42;16.73;;;9.77;;
53271;SDS011;39160;48.580;7.756;2023-03-01T13:02:45;15.60;;;10.32;;
53271;SDS011;39160;48.580;7.756;2023-03-01T13:13:08;15.23;;;8.60;;
53271;SDS011;39160;48.580;7.756;2023-03-01T13:18:48;16.73;;;9.30;;
53271;SDS011;39160;48.580;7.756;2023-03-01T13:28:54;17.33;;;10.02;;
53271;SDS011;39160;48.580;7.756;2023-03-01T13:48:25;16.50;;;11.80;;
53271;SDS011;39160;48.580;7.756;2023-03-01T13:53:19;16.35;;;10.88;;
53271;SDS011;39160;48.580;7.756;2023-03-01T13:58:15;16.27;;;10.50;;
53271;SDS011;39160;48.580;7.756;2023-03-01T14:03:23;18.60;;;11.88;;
53271;SDS011;39160;48.580;7.756;2023-03-01T14:08:21;20.30;;;11.30;;
53271;SDS011;39160;48.580;7.756;2023-03-01T14:13:22;18.75;;;11.60;;
53271;SDS011;39160;48.580;7.756;2023-03-01T14:18:38;16.27;;;10.88;;
53271;SDS011;39160;48.580;7.756;2023-03-01T14:23:42;18.75;;;11.10;;
53271;SDS011;39160;48.580;7.756;2023-03-01T14:28:33;17.15;;;11.32;;
53271;SDS011;39160;48.580;7.756;2023-03-01T14:38:28;17.20;;;11.27;;
53271;SDS011;39160;48.580;7.756;2023-03-01T14:43:29;18.17;;;11.15;;
53271;SDS011;39160;48.580;7.756;2023-03-01T14:48:21;16.40;;;11.00;;
53271;SDS011;39160;48.580;7.756;2023-03-01T14:53:17;13.40;;;9.85;;
53271;SDS011;39160;48.580;7.756;2023-03-01T14:58:12;15.80;;;11.15;;
53271;SDS011;39160;48.580;7.756;2023-03-01T15:03:07;14.70;;;10.00;;
53271;SDS011;39160;48.580;7.756;2023-03-01T15:08:03;15.95;;;11.15;;
53271;SDS011;39160;48.580;7.756;2023-03-01T15:12:54;18.13;;;11.13;;
53271;SDS011;39160;48.580;7.756;2023-03-01T15:17:48;15.77;;;9.90;;
53271;SDS011;39160;48.580;7.756;2023-03-01T15:22:47;17.15;;;10.05;;
53271;SDS011;39160;48.580;7.756;2023-03-01T15:27:38;15.38;;;10.52;;
53271;SDS011;39160;48.580;7.756;2023-03-01T15:32:36;15.30;;;11.05;;
53271;SDS011;39160;48.580;7.756;2023-03-01T15:47:22;16.00;;;9.45;;
53271;SDS011;39160;48.580;7.756;2023-03-01T15:52:20;14.65;;;9.18;;
53271;SDS011;39160;48.580;7.756;2023-03-01T15:57:18;19.50;;;10.75;;
53271;SDS011;39160;48.580;7.756;2023-03-01T16:02:11;16.00;;;8.57;;
53271;SDS011;39160;48.580;7.756;2023-03-01T16:07:05;16.95;;;9.90;;
53271;SDS011;39160;48.580;7.756;2023-03-01T16:11:56;15.50;;;10.32;;
53271;SDS011;39160;48.580;7.756;2023-03-01T16:16:47;18.67;;;10.43;;
53271;SDS011;39160;48.580;7.756;2023-03-01T16:21:38;15.18;;;8.80;;
53271;SDS011;39160;48.580;7.756;2023-03-01T16:26:28;18.40;;;9.73;;
53271;SDS011;39160;48.580;7.756;2023-03-01T16:31:19;15.30;;;9.10;;
53271;SDS011;39160;48.580;7.756;2023-03-01T16:36:10;14.05;;;8.43;;
53271;SDS011;39160;48.580;7.756;2023-03-01T16:41:02;13.45;;;8.00;;
53271;SDS011;39160;48.580;7.756;2023-03-01T16:45:52;17.75;;;9.30;;
53271;SDS011;39160;48.580;7.756;2023-03-01T16:50:43;17.88;;;8.85;;
53271;SDS011;39160;48.580;7.756;2023-03-01T16:55:34;15.23;;;7.88;;
53271;SDS011;39160;48.580;7.756;2023-03-01T17:00:25;17.60;;;7.70;;
53271;SDS011;39160;48.580;7.756;2023-03-01T17:05:15;15.65;;;7.57;;
53271;SDS011;39160;48.580;7.756;2023-03-01T17:10:08;12.90;;;7.68;;
53271;SDS011;39160;48.580;7.756;2023-03-01T17:15:00;14.25;;;8.93;;
53271;SDS011;39160;48.580;7.756;2023-03-01T17:19:50;15.57;;;8.27;;
53271;SDS011;39160;48.580;7.756;2023-03-01T17:24:41;16.63;;;8.93;;
53271;SDS011;39160;48.580;7.756;2023-03-01T17:29:33;14.65;;;6.68;;
53271;SDS011;39160;48.580;7.756;2023-03-01T17:34:24;14.85;;;7.95;;
53271;SDS011;39160;48.580;7.756;2023-03-01T17:39:15;14.48;;;8.00;;
53271;SDS011;39160;48.580;7.756;2023-03-01T17:44:07;15.57;;;7.63;;
53271;SDS011;39160;48.580;7.756;2023-03-01T17:48:57;17.23;;;8.32;;
53271;SDS011;39160;48.580;7.756;2023-03-01T17:53:48;12.65;;;6.43;;
53271;SDS011;39160;48.580;7.756;2023-03-01T17:58:39;13.95;;;7.72;;
53271;SDS011;39160;48.580;7.756;2023-03-01T18:03:29;15.63;;;7.80;;
53271;SDS011;39160;48.580;7.756;2023-03-01T18:08:20;18.20;;;7.18;;
53271;SDS011;39160;48.580;7.756;2023-03-01T18:13:12;14.65;;;7.32;;
53271;SDS011;39160;48.580;7.756;2023-03-01T18:18:03;14.95;;;7.68;;
53271;SDS011;39160;48.580;7.756;2023-03-01T18:22:54;13.45;;;7.30;;
53271;SDS011;39160;48.580;7.756;2023-03-01T18:27:45;16.42;;;7.05;;
53271;SDS011;39160;48.580;7.756;2023-03-01T18:32:35;17.45;;;7.78;;
53271;SDS011;39160;48.580;7.756;2023-03-01T18:37:28;14.10;;;7.70;;
53271;SDS011;39160;48.580;7.756;2023-03-01T18:42:19;14.20;;;8.02;;
53271;SDS011;39160;48.580;7.756;2023-03-01T18:47:09;16.55;;;7.55;;
53271;SDS011;39160;48.580;7.756;2023-03-01T18:52:00;16.05;;;7.97;;
53271;SDS011;39160;48.580;7.756;2023-03-01T18:56:51;14.05;;;6.85;;
53271;SDS011;39160;48.580;7.756;2023-03-01T19:01:42;16.25;;;7.53;;
53271;SDS011;39160;48.580;7.756;2023-03-01T19:06:33;15.52;;;8.60;;
53271;SDS011;39160;48.580;7.756;2023-03-01T19:11:24;13.40;;;7.35;;
53271;SDS011;39160;48.580;7.756;2023-03-01T19:16:17;13.80;;;7.25;;
53271;SDS011;39160;48.580;7.756;2023-03-01T19:21:10;18.20;;;8.52;;
53271;SDS011;39160;48.580;7.756;2023-03-01T19:26:01;13.70;;;8.05;;
53271;SDS011;39160;48.580;7.756;2023-03-01T19:30:59;17.58;;;8.52;;
53271;SDS011;39160;48.580;7.756;2023-03-01T19:35:51;17.73;;;8.35;;
53271;SDS011;39160;48.580;7.756;2023-03-01T19:40:42;16.63;;;8.02;;
53271;SDS011;39160;48.580;7.756;2023-03-01T19:45:33;19.05;;;8.40;;
53271;SDS011;39160;48.580;7.756;2023-03-01T19:50:30;16.23;;;6.60;;
53271;SDS011;39160;48.580;7.756;2023-03-01T19:55:21;14.07;;;7.70;;
53271;SDS011;39160;48.580;7.756;2023-03-01T20:00:11;15.65;;;8.43;;
53271;SDS011;39160;48.580;7.756;2023-03-01T20:05:03;20.42;;;7.93;;
53271;SDS011;39160;48.580;7.756;2023-03-01T20:09:54;16.70;;;7.53;;
53271;SDS011;39160;48.580;7.756;2023-03-01T20:14:44;17.13;;;8.02;;
53271;SDS011;39160;48.580;7.756;2023-03-01T20:19:37;17.30;;;8.82;;
53271;SDS011;39160;48.580;7.756;2023-03-01T20:24:28;13.40;;;7.40;;
53271;SDS011;39160;48.580;7.756;2023-03-01T20:29:20;16.33;;;8.10;;
53271;SDS011;39160;48.580;7.756;2023-03-01T20:34:11;17.20;;;8.60;;
53271;SDS011;39160;48.580;7.756;2023-03-01T20:39:02;16.40;;;8.40;;
53271;SDS011;39160;48.580;7.756;2023-03-01T20:43:53;23.45;;;9.43;;
53271;SDS011;39160;48.580;7.756;2023-03-01T20:48:45;18.52;;;7.82;;
53271;SDS011;39160;48.580;7.756;2023-03-01T20:53:36;19.05;;;9.88;;
53271;SDS011;39160;48.580;7.756;2023-03-01T20:58:27;23.85;;;10.55;;
53271;SDS011;39160;48.580;7.756;2023-03-01T21:03:21;21.40;;;9.45;;
53271;SDS011;39160;48.580;7.756;2023-03-01T21:08:12;18.23;;;8.95;;
53271;SDS011;39160;48.580;7.756;2023-03-01T21:13:03;19.27;;;9.52;;
53271;SDS011;39160;48.580;7.756;2023-03-01T21:17:53;20.75;;;9.40;;
53271;SDS011;39160;48.580;7.756;2023-03-01T21:22:44;17.38;;;7.30;;
53271;SDS011;39160;48.580;7.756;2023-03-01T21:27:35;16.40;;;8.07;;
53271;SDS011;39160;48.580;7.756;2023-03-01T21:32:27;18.38;;;9.80;;
53271;SDS011;39160;48.580;7.756;2023-03-01T21:37:17;12.95;;;7.40;;
53271;SDS011;39160;48.580;7.756;2023-03-01T21:42:11;16.42;;;7.57;;
53271;SDS011;39160;48.580;7.756;2023-03-01T21:47:03;16.65;;;8.07;;
53271;SDS011;39160;48.580;7.756;2023-03-01T21:51:53;16.65;;;7.00;;
53271;SDS011;39160;48.580;7.756;2023-03-01T21:56:45;12.25;;;7.18;;
53271;SDS011;39160;48.580;7.756;2023-03-01T22:01:37;14.73;;;6.63;;
53271;SDS011;39160;48.580;7.756;2023-03-01T22:06:29;13.80;;;6.25;;
53271;SDS011;39160;48.580;7.756;2023-03-01T22:11:23;13.55;;;5.75;;
53271;SDS011;39160;48.580;7.756;2023-03-01T22:16:16;12.90;;;6.47;;
53271;SDS011;39160;48.580;7.756;2023-03-01T22:21:08;13.80;;;6.13;;
53271;SDS011;39160;48.580;7.756;2023-03-01T22:26:00;12.55;;;5.78;;
53271;SDS011;39160;48.580;7.756;2023-03-01T22:30:51;13.10;;;6.95;;
53271;SDS011;39160;48.580;7.756;2023-03-01T22:35:41;14.23;;;7.40;;
53271;SDS011;39160;48.580;7.756;2023-03-01T22:40:32;12.27;;;6.90;;
53271;SDS011;39160;48.580;7.756;2023-03-01T22:45:23;14.70;;;6.55;;
53271;SDS011;39160;48.580;7.756;2023-03-01T22:50:14;18.02;;;6.25;;
53271;SDS011;39160;48.580;7.756;2023-03-01T22:55:05;10.60;;;6.45;;
53271;SDS011;39160;48.580;7.756;2023-03-01T22:59:56;16.25;;;7.75;;
53271;SDS011;39160;48.580;7.756;2023-03-01T23:04:47;16.88;;;7.20;;
53271;SDS011;39160;48.580;7.756;2023-03-01T23:09:38;15.18;;;7.57;;
53271;SDS011;39160;48.580;7.756;2023-03-01T23:14:29;12.60;;;6.57;;
53271;SDS011;39160;48.580;7.756;2023-03-01T23:19:21;13.45;;;7.32;;
53271;SDS011;39160;48.580;7.756;2023-03-01T23:24:13;16.25;;;7.35;;
53271;SDS011;39160;48.580;7.756;2023-03-01T23:29:04;15.18;;;6.75;;
53271;SDS011;39160;48.580;7.756;2023-03-01T23:33:54;9.43;;;6.70;;
53271;SDS011;39160;48.580;7.756;2023-03-01T23:38:46;13.95;;;6.22;;
53271;SDS011;39160;48.580;7.756;2023-03-01T23:43:38;16.10;;;7.43;;
53271;SDS011;39160;48.580;7.756;2023-03-01T23:48:28;19.00;;;6.35;;
53271;SDS011;39160;48.580;7.756;2023-03-01T23:53:19;14.25;;;7.82;;
53271;SDS011;39160;48.580;7.756;2023-03-01T23:58:10;13.90;;;7.93;;
